Time;durP1;ratioP1;P1;durP2;ratioP2;P2;SDS_P1;SDS_P2;PMS_P1;PMS_P2;Temp;Humidity;BMP_temperature;BMP_pressure;BME280_temperature;BME280_humidity;BME280_pressure;Samples;Min_cycle;Max_cycle;Signal;HPM_P1;HPM_P2
2022/06/27 00:00:15;;;;;;;;;;;;;;;21.78;100.00;100703.81;3056334;19;1039;-47
2022/06/27 00:01:20;;;;;;;;;;;;;;;21.77;100.00;100708.38;3056810;19;972;-47
2022/06/27 00:02:23;;;;;;;;;;;;;;;21.75;100.00;100704.13;3056597;19;1221;-47
2022/06/27 00:03:27;;;;;;;;;;;;;;;21.75;100.00;100699.53;3056657;19;964;-47
2022/06/27 00:04:29;;;;;;;;;;;;;;;21.74;100.00;100703.25;3056535;19;1664;-47
2022/06/27 00:05:34;;;;;;;;;;;;;;;21.73;100.00;100712.47;3056703;19;980;-46
2022/06/27 00:06:35;;;;;;;;;;;;;;;21.74;100.00;100708.69;3056703;19;932;-47
2022/06/27 00:07:40;;;;;;;;;;;;;;;21.71;100.00;100703.63;3056720;19;1032;-48
2022/06/27 00:08:42;;;;;;;;;;;;;;;21.72;100.00;100702.59;3056606;19;916;-47
2022/06/27 00:09:47;;;;;;;;;;;;;;;21.73;100.00;100707.03;3056792;19;889;-47
2022/06/27 00:10:48;;;;;;;;;;;;;;;21.74;100.00;100702.41;3056671;19;952;-48
2022/06/27 00:11:53;;;;;;;;;;;;;;;21.74;100.00;100711.41;3056770;19;989;-47
2022/06/27 00:12:55;;;;;;;;;;;;;;;21.73;100.00;100706.16;3056479;19;1039;-47
2022/06/27 00:14:00;;;;;;;;;;;;;;;21.71;100.00;100702.75;3056904;19;988;-47
2022/06/27 00:15:02;;;;;;;;;;;;;;;21.70;100.00;100701.06;3056328;19;1711;-47
2022/06/27 00:16:07;;;;;;;;;;;;;;;21.68;100.00;100709.38;3056087;19;1864;-47
2022/06/27 00:17:31;;;;;;;;;;;;;;;21.70;100.00;100707.34;3056902;19;885;-47
2022/06/27 00:18:33;;;;;;;;;;;;;;;21.70;100.00;100706.50;3056517;19;909;-47
2022/06/27 00:19:37;;;;;;;;;;;;;;;21.69;100.00;100702.06;3056912;19;900;-47
2022/06/27 00:20:39;;;;;;;;;;;;;;;21.68;100.00;100703.94;3056342;19;1024;-47
2022/06/27 00:21:44;;;;;;;;;;;;;;;21.68;100.00;100701.22;3056864;19;877;-47
2022/06/27 00:22:48;;;;;;;;;;;;;;;21.66;100.00;100700.50;3056581;19;930;-47
2022/06/27 00:23:50;;;;;;;;;;;;;;;21.66;100.00;100710.53;3057045;19;869;-47
2022/06/27 00:24:54;;;;;;;;;;;;;;;21.64;100.00;100701.69;3055988;19;920;-47
2022/06/27 00:25:56;;;;;;;;;;;;;;;21.63;100.00;100705.41;3056721;19;889;-47
2022/06/27 00:27:01;;;;;;;;;;;;;;;21.62;100.00;100692.84;3056264;19;901;-47
2022/06/27 00:28:03;;;;;;;;;;;;;;;21.60;100.00;100706.59;3055577;19;980;-47
2022/06/27 00:29:07;;;;;;;;;;;;;;;21.58;100.00;100708.63;3055456;19;917;-47
2022/06/27 00:30:10;;;;;;;;;;;;;;;21.56;100.00;100705.22;3055876;19;1177;-48
2022/06/27 00:31:16;;;;;;;;;;;;;;;21.56;100.00;100699.78;3055786;19;972;-46
2022/06/27 00:32:19;;;;;;;;;;;;;;;21.54;100.00;100705.38;3054365;19;972;-47
2022/06/27 00:33:23;;;;;;;;;;;;;;;21.51;100.00;100702.09;3055724;19;858;-47
2022/06/27 00:34:25;;;;;;;;;;;;;;;21.50;100.00;100705.84;3055655;19;993;-47
2022/06/27 00:35:30;;;;;;;;;;;;;;;21.48;100.00;100705.16;3055544;19;952;-47
2022/06/27 00:36:32;;;;;;;;;;;;;;;21.45;100.00;100708.19;3056675;19;1858;-47
2022/06/27 00:37:36;;;;;;;;;;;;;;;21.45;100.00;100719.06;3056284;19;964;-47
2022/06/27 00:38:38;;;;;;;;;;;;;;;21.45;100.00;100700.06;3055867;19;929;-47
2022/06/27 00:39:43;;;;;;;;;;;;;;;21.42;100.00;100719.38;3055305;19;956;-47
2022/06/27 00:40:45;;;;;;;;;;;;;;;21.41;100.00;100712.22;3056274;19;635;-49
2022/06/27 00:41:49;;;;;;;;;;;;;;;21.41;100.00;100707.66;3055394;19;925;-47
2022/06/27 00:42:51;;;;;;;;;;;;;;;21.32;100.00;100692.31;3055868;19;937;-47
2022/06/27 00:43:56;;;;;;;;;;;;;;;21.39;100.00;100711.53;3055642;19;1694;-48
2022/06/27 00:44:58;;;;;;;;;;;;;;;21.38;100.00;100709.81;3056249;19;885;-47
2022/06/27 00:46:02;;;;;;;;;;;;;;;21.37;100.00;100710.88;3056169;19;890;-47
2022/06/27 00:47:05;;;;;;;;;;;;;;;21.37;100.00;100711.72;3056639;19;806;-48
2022/06/27 00:48:09;;;;;;;;;;;;;;;21.37;100.00;100705.44;3055333;19;936;-49
2022/06/27 00:49:11;;;;;;;;;;;;;;;21.35;100.00;100707.44;3055282;19;1184;-47
2022/06/27 00:50:16;;;;;;;;;;;;;;;21.34;100.00;100706.59;3056130;19;905;-47
2022/06/27 00:51:18;;;;;;;;;;;;;;;21.34;100.00;100706.59;3056324;19;1040;-47
2022/06/27 00:52:22;;;;;;;;;;;;;;;21.32;100.00;100713.19;3055874;19;1132;-47
2022/06/27 00:53:28;;;;;;;;;;;;;;;21.31;100.00;100711.47;3056501;19;1243;-47
2022/06/27 00:54:30;;;;;;;;;;;;;;;21.31;100.00;100703.34;3054835;19;962;-47
2022/06/27 00:55:35;;;;;;;;;;;;;;;21.30;100.00;100707.06;3055297;19;964;-47
2022/06/27 00:56:37;;;;;;;;;;;;;;;21.30;100.00;100704.34;3054615;19;1869;-48
2022/06/27 00:57:41;;;;;;;;;;;;;;;21.27;100.00;100701.94;3055657;19;921;-49
2022/06/27 00:58:44;;;;;;;;;;;;;;;21.27;100.00;100704.66;3055225;19;1092;-47
2022/06/27 00:59:48;;;;;;;;;;;;;;;21.26;100.00;100697.50;3055564;19;929;-47
2022/06/27 01:00:50;;;;;;;;;;;;;;;21.23;100.00;100703.28;3054945;19;1353;-47
2022/06/27 01:01:55;;;;;;;;;;;;;;;21.22;100.00;100702.44;3055448;19;988;-47
2022/06/27 01:02:57;;;;;;;;;;;;;;;21.20;100.00;100699.88;3055174;19;913;-47
2022/06/27 01:04:02;;;;;;;;;;;;;;;21.18;100.00;100701.88;3055554;19;1308;-47
2022/06/27 01:05:04;;;;;;;;;;;;;;;21.16;100.00;100703.88;3055828;19;1025;-48
2022/06/27 01:06:08;;;;;;;;;;;;;;;21.13;100.00;100704.16;3056212;19;909;-47
2022/06/27 01:07:10;;;;;;;;;;;;;;;21.12;100.00;100707.06;3056071;19;1059;-47
2022/06/27 01:08:18;;;;;;;;;;;;;;;21.10;100.00;100709.94;3054869;19;1075;-45
2022/06/27 01:09:20;;;;;;;;;;;;;;;21.10;100.00;100709.09;3054928;19;1047;-47
2022/06/27 01:10:24;;;;;;;;;;;;;;;21.07;100.00;100709.38;3056010;19;952;-47
2022/06/27 01:11:26;;;;;;;;;;;;;;;21.04;100.00;100705.13;3055861;19;1033;-46
2022/06/27 01:12:31;;;;;;;;;;;;;;;21.02;100.00;100701.69;3055188;19;902;-46
2022/06/27 01:13:33;;;;;;;;;;;;;;;21.00;100.00;100703.75;3054932;19;1012;-47
2022/06/27 01:14:37;;;;;;;;;;;;;;;20.98;100.00;100699.47;3055458;19;818;-47
2022/06/27 01:15:44;;;;;;;;;;;;;;;20.96;100.00;100701.50;3054836;19;874;-48
2022/06/27 01:16:49;;;;;;;;;;;;;;;20.93;100.00;100708.06;3054664;19;1855;-48
2022/06/27 01:17:51;;;;;;;;;;;;;;;20.90;100.00;100697.53;3055075;19;957;-47
2022/06/27 01:18:56;;;;;;;;;;;;;;;20.87;100.00;100708.72;3054906;19;969;-47
2022/06/27 01:20:00;;;;;;;;;;;;;;;20.85;100.00;100705.28;3055360;19;1195;-47
2022/06/27 01:21:06;;;;;;;;;;;;;;;20.82;100.00;100703.75;3054800;19;884;-47
2022/06/27 01:22:08;;;;;;;;;;;;;;;20.80;100.00;100692.19;3055245;19;901;-47
2022/06/27 01:23:13;;;;;;;;;;;;;;;20.80;100.00;100699.47;3054755;19;921;-47
2022/06/27 01:24:19;;;;;;;;;;;;;;;20.80;100.00;100703.03;3055469;19;862;-48
2022/06/27 01:25:24;;;;;;;;;;;;;;;20.81;100.00;100693.03;3054661;19;997;-47
2022/06/27 01:26:25;;;;;;;;;;;;;;;20.81;100.00;100693.03;3055302;19;928;-47
2022/06/27 01:27:31;;;;;;;;;;;;;;;20.79;100.00;100695.06;3054666;19;1152;-47
2022/06/27 01:28:32;;;;;;;;;;;;;;;20.80;100.00;100685.91;3054948;19;988;-47
2022/06/27 01:29:37;;;;;;;;;;;;;;;20.77;100.00;100692.50;3054550;19;977;-47
2022/06/27 01:30:40;;;;;;;;;;;;;;;20.76;100.00;100695.38;3054057;19;1279;-47
2022/06/27 01:31:44;;;;;;;;;;;;;;;20.72;100.00;100692.13;3054883;19;889;-47
2022/06/27 01:32:46;;;;;;;;;;;;;;;20.71;100.00;100692.28;3055075;19;877;-47
2022/06/27 01:33:51;;;;;;;;;;;;;;;20.66;100.00;100700.00;3054851;19;942;-48
2022/06/27 01:34:54;;;;;;;;;;;;;;;20.63;100.00;100695.78;3054871;19;990;-47
2022/06/27 01:37:18;;;;;;;;;;;;;;;20.59;100.00;100693.50;3053887;19;2488;-47
2022/06/27 01:38:21;;;;;;;;;;;;;;;20.58;100.00;100697.22;3054783;19;1084;-47
2022/06/27 01:39:26;;;;;;;;;;;;;;;20.58;100.00;100686.38;3055087;19;875;-46
2022/06/27 01:40:32;;;;;;;;;;;;;;;20.57;100.00;100690.09;3054532;19;1016;-47
2022/06/27 01:41:37;;;;;;;;;;;;;;;20.55;100.00;100676.69;3055095;19;1047;-46
2022/06/27 01:42:42;;;;;;;;;;;;;;;20.54;100.00;100680.41;3054858;19;972;-47
2022/06/27 01:43:45;;;;;;;;;;;;;;;20.52;100.00;100678.88;3054928;19;1279;-47
2022/06/27 01:44:49;;;;;;;;;;;;;;;20.52;100.00;100676.16;3056613;19;1032;-48
2022/06/27 01:45:51;;;;;;;;;;;;;;;20.52;100.00;100682.44;3057909;19;827;-47
2022/06/27 01:47:08;;;;;;;;;;;;;;;20.48;100.00;100675.59;3058274;19;873;-47
2022/06/27 01:48:17;;;;;;;;;;;;;;;20.48;100.00;100676.47;3057855;19;926;-49
2022/06/27 01:49:22;;;;;;;;;;;;;;;20.45;100.00;100682.19;3058095;19;933;-47
2022/06/27 01:50:24;;;;;;;;;;;;;;;20.44;100.00;100680.47;3057252;19;1048;-47
2022/06/27 01:51:29;;;;;;;;;;;;;;;20.42;100.00;100677.06;3057981;19;913;-47
2022/06/27 01:52:34;;;;;;;;;;;;;;;20.42;100.00;100679.75;3057252;19;1035;-47
2022/06/27 01:53:38;;;;;;;;;;;;;;;20.42;100.00;100679.75;3057964;19;774;-49
2022/06/27 01:54:43;;;;;;;;;;;;;;;20.42;100.00;100671.63;3057671;19;1032;-46
2022/06/27 01:55:45;;;;;;;;;;;;;;;20.42;100.00;100670.78;3057874;19;1847;-46
2022/06/27 01:56:51;;;;;;;;;;;;;;;20.42;100.00;100671.63;3057547;19;1408;-46
2022/06/27 01:57:55;;;;;;;;;;;;;;;20.42;100.00;100673.50;3057708;19;1082;-47
2022/06/27 01:59:00;;;;;;;;;;;;;;;20.42;100.00;100676.19;3057470;19;1336;-49
2022/06/27 02:00:02;;;;;;;;;;;;;;;20.41;100.00;100686.19;3057714;19;977;-47
2022/06/27 02:01:16;;;;;;;;;;;;;;;20.39;100.00;100681.94;3057617;19;905;-47
2022/06/27 02:02:18;;;;;;;;;;;;;;;20.38;100.00;100686.53;3057656;19;1250;-47
2022/06/27 02:03:24;;;;;;;;;;;;;;;20.37;100.00;100673.97;3057868;19;938;-48
2022/06/27 02:04:27;;;;;;;;;;;;;;;20.36;100.00;100682.25;3057661;19;947;-47
2022/06/27 02:05:31;;;;;;;;;;;;;;;20.34;100.00;100679.66;3057143;19;893;-47
2022/06/27 02:06:33;;;;;;;;;;;;;;;20.33;100.00;100677.09;3057551;19;1228;-47
2022/06/27 02:07:41;;;;;;;;;;;;;;;20.34;100.00;100682.38;3057675;19;984;-48
2022/06/27 02:08:46;;;;;;;;;;;;;;;20.33;100.00;100680.66;3057680;19;972;-47
2022/06/27 02:09:52;;;;;;;;;;;;;;;20.33;100.00;100683.38;3057823;19;914;-47
2022/06/27 02:10:56;;;;;;;;;;;;;;;20.32;100.00;100681.66;3057412;19;941;-47
2022/06/27 02:12:18;;;;;;;;;;;;;;;20.31;100.00;100679.09;3057782;19;929;-48
2022/06/27 02:13:21;;;;;;;;;;;;;;;20.31;100.00;100685.38;3057636;19;866;-48
2022/06/27 02:14:26;;;;;;;;;;;;;;;20.32;100.00;100676.25;3057763;19;1286;-47
2022/06/27 02:15:29;;;;;;;;;;;;;;;20.32;100.00;100681.66;3057316;19;1594;-47
2022/06/27 02:16:34;;;;;;;;;;;;;;;20.34;100.00;100685.06;3057466;19;929;-47
2022/06/27 02:17:36;;;;;;;;;;;;;;;20.33;100.00;100683.38;3056691;19;2257;-47
2022/06/27 02:18:44;;;;;;;;;;;;;;;20.34;100.00;100685.06;3057717;19;872;-47
2022/06/27 02:19:49;;;;;;;;;;;;;;;20.33;100.00;100691.50;3057199;19;1012;-48
2022/06/27 02:20:53;;;;;;;;;;;;;;;20.26;100.00;100682.28;3057112;19;1048;-48
2022/06/27 02:21:55;;;;;;;;;;;;;;;20.32;100.00;100686.22;3056874;19;1787;-47
2022/06/27 02:23:00;;;;;;;;;;;;;;;20.32;100.00;100680.81;3057561;19;1795;-47
2022/06/27 02:24:02;;;;;;;;;;;;;;;20.30;100.00;100680.97;3057410;19;889;-48
2022/06/27 02:25:07;;;;;;;;;;;;;;;20.31;100.00;100692.66;3057564;19;911;-47
2022/06/27 02:26:10;;;;;;;;;;;;;;;20.31;100.00;100681.81;3057307;19;1020;-47
2022/06/27 02:27:14;;;;;;;;;;;;;;;20.31;100.00;100679.09;3057738;19;993;-47
2022/06/27 02:28:20;;;;;;;;;;;;;;;20.30;100.00;100685.53;3057295;19;942;-47
2022/06/27 02:29:24;;;;;;;;;;;;;;;20.31;100.00;100685.38;3058487;19;964;-47
2022/06/27 02:30:26;;;;;;;;;;;;;;;20.34;100.00;100685.06;3055991;19;1181;-47
2022/06/27 02:31:30;;;;;;;;;;;;;;;20.38;100.00;100688.38;3057220;19;902;-48
2022/06/27 02:32:32;;;;;;;;;;;;;;;20.46;100.00;100683.88;3057914;19;1059;-47
2022/06/27 02:33:37;;;;;;;;;;;;;;;20.63;100.00;100693.06;3057699;19;854;-48
2022/06/27 02:34:39;;;;;;;;;;;;;;;20.80;100.00;100696.75;3057393;19;964;-48
2022/06/27 02:35:43;;;;;;;;;;;;;;;20.94;100.00;100696.22;3057045;19;965;-47
2022/06/27 02:36:46;;;;;;;;;;;;;;;21.09;100.00;100702.81;3057036;19;1052;-48
2022/06/27 02:37:51;;;;;;;;;;;;;;;21.25;100.00;100706.69;3056661;19;1849;-47
2022/06/27 02:38:53;;;;;;;;;;;;;;;21.41;100.00;100704.09;3057117;19;929;-47
2022/06/27 02:39:58;;;;;;;;;;;;;;;21.57;100.00;100709.63;3057441;19;874;-47
2022/06/27 02:41:06;;;;;;;;;;;;;;;21.75;100.00;100712.28;3041243;19;1828;-47
2022/06/27 02:42:11;;;;;;;;;;;;;;;21.93;100.00;100713.06;3054371;19;1439;-48
2022/06/27 02:43:13;;;;;;;;;;;;;;;22.12;100.00;100717.41;3056483;19;1324;-48
2022/06/27 02:44:20;;;;;;;;;;;;;;;22.30;100.00;100714.63;3057810;19;1004;-47
2022/06/27 02:45:22;;;;;;;;;;;;;;;22.48;100.00;100724.34;3056978;19;1071;-48
2022/06/27 02:46:26;;;;;;;;;;;;;;;22.62;100.00;100729.16;3057115;19;1103;-51
2022/06/27 02:47:29;;;;;;;;;;;;;;;22.77;100.00;100733.97;3057053;19;873;-52
2022/06/27 02:48:34;;;;;;;;;;;;;;;22.94;100.00;100730.28;3057152;19;896;-48
2022/06/27 02:49:36;;;;;;;;;;;;;;;23.18;100.00;100735.75;3057226;19;948;-47
2022/06/27 02:50:41;;;;;;;;;;;;;;;23.40;100.00;100736.94;3056872;19;1019;-48
2022/06/27 02:51:44;;;;;;;;;;;;;;;23.61;100.00;100750.03;3057309;19;881;-48
2022/06/27 02:52:50;;;;;;;;;;;;;;;23.77;100.00;100744.56;3058686;19;1402;-47
2022/06/27 02:53:57;;;;;;;;;;;;;;;23.90;100.00;100744.03;3057210;19;897;-48
2022/06/27 02:55:37;;;;;;;;;;;;;;;24.02;100.00;100738.03;3055744;19;1099;-48
2022/06/27 02:56:42;;;;;;;;;;;;;;;24.27;100.00;100751.63;3056914;19;960;-48
2022/06/27 02:57:47;;;;;;;;;;;;;;;24.44;100.00;100747.75;3056846;19;1853;-48
2022/06/27 02:59:02;;;;;;;;;;;;;;;24.62;100.00;100748.38;3056911;19;944;-49
2022/06/27 03:00:07;;;;;;;;;;;;;;;24.78;100.00;100756.44;3057061;19;912;-48
2022/06/27 03:01:10;;;;;;;;;;;;;;;24.95;100.00;100750.91;3056907;19;1601;-48
2022/06/27 03:02:15;;;;;;;;;;;;;;;25.13;100.00;100751.44;3056726;19;1016;-48
2022/06/27 03:03:50;;;;;;;;;;;;;;;25.42;100.00;100754.28;3055931;19;1873;-48
2022/06/27 03:04:53;;;;;;;;;;;;;;;25.72;100.00;100757.97;3056998;19;1003;-48
2022/06/27 03:06:01;;;;;;;;;;;;;;;26.02;100.00;100756.13;3056423;19;917;-48
2022/06/27 03:07:05;;;;;;;;;;;;;;;26.38;96.98;100767.19;3056806;19;877;-48
2022/06/27 03:08:08;;;;;;;;;;;;;;;26.71;94.16;100761.25;3056558;19;988;-48
2022/06/27 03:09:15;;;;;;;;;;;;;;;27.01;91.35;100767.53;3057120;19;794;-49
2022/06/27 03:10:17;;;;;;;;;;;;;;;27.31;88.66;100769.09;3056450;19;941;-48
2022/06/27 03:11:24;;;;;;;;;;;;;;;27.60;86.12;100777.19;3058549;19;1010;-47
2022/06/27 03:12:26;;;;;;;;;;;;;;;27.92;84.19;100772.16;3056913;19;904;-48
2022/06/27 03:13:31;;;;;;;;;;;;;;;28.19;82.13;100774.06;3057016;19;978;-48
2022/06/27 03:14:36;;;;;;;;;;;;;;;28.48;80.30;100778.44;3056452;19;1016;-48
2022/06/27 03:15:38;;;;;;;;;;;;;;;28.78;78.36;100772.63;3056764;19;916;-47
2022/06/27 03:16:42;;;;;;;;;;;;;;;29.03;76.98;100788.38;3056666;19;929;-48
2022/06/27 03:17:44;;;;;;;;;;;;;;;29.34;75.22;100784.22;3056820;19;956;-48
2022/06/27 03:19:04;;;;;;;;;;;;;;;29.70;73.07;100776.44;3057373;19;1521;-48
2022/06/27 03:20:28;;;;;;;;;;;;;;;30.11;70.95;100782.75;3056627;19;1189;-48
2022/06/27 03:21:53;;;;;;;;;;;;;;;30.50;68.77;100784.56;3056841;19;1171;-48
2022/06/27 03:22:55;;;;;;;;;;;;;;;30.78;67.18;100785.13;3056216;19;1158;-48
2022/06/27 03:24:00;;;;;;;;;;;;;;;31.02;65.63;100784.34;3056462;19;1040;-47
2022/06/27 03:25:04;;;;;;;;;;;;;;;31.30;64.41;100786.72;3056595;19;913;-48
2022/06/27 03:26:09;;;;;;;;;;;;;;;31.57;63.56;100789.28;3056123;19;985;-47
2022/06/27 03:27:14;;;;;;;;;;;;;;;31.84;62.18;100786.13;3056270;19;980;-48
2022/06/27 03:28:16;;;;;;;;;;;;;;;32.16;61.15;100794.28;3056302;19;975;-48
2022/06/27 03:29:20;;;;;;;;;;;;;;;32.44;60.21;100800.19;3056298;19;948;-48
2022/06/27 03:30:22;;;;;;;;;;;;;;;32.73;59.32;100797.72;3056265;19;861;-47
2022/06/27 03:31:27;;;;;;;;;;;;;;;33.03;58.24;100797.75;3056367;19;1039;-48
2022/06/27 03:32:29;;;;;;;;;;;;;;;33.32;57.29;100798.84;3055985;19;1063;-47
2022/06/27 03:33:39;;;;;;;;;;;;;;;33.58;56.37;100792.88;3056666;19;1047;-48
2022/06/27 03:35:16;;;;;;;;;;;;;;;33.48;55.91;100792.63;3055579;19;1334;-48
2022/06/27 03:36:18;;;;;;;;;;;;;;;33.37;55.96;100793.44;3056901;19;1266;-48
2022/06/27 03:37:22;;;;;;;;;;;;;;;33.38;56.00;100795.13;3056428;19;877;-48
2022/06/27 03:38:24;;;;;;;;;;;;;;;33.21;55.86;100784.69;3056323;19;1846;-48
2022/06/27 03:39:29;;;;;;;;;;;;;;;32.79;56.26;100802.34;3056104;19;984;-48
2022/06/27 03:40:31;;;;;;;;;;;;;;;32.33;57.50;100795.44;3056388;19;1767;-48
2022/06/27 03:41:36;;;;;;;;;;;;;;;31.94;58.51;100787.50;3055544;19;1156;-48
2022/06/27 03:42:40;;;;;;;;;;;;;;;31.87;59.18;100795.03;3056424;19;872;-48
2022/06/27 03:43:45;;;;;;;;;;;;;;;32.15;58.89;100795.34;3056422;19;900;-48
2022/06/27 03:44:47;;;;;;;;;;;;;;;32.64;57.80;100791.63;3056476;19;888;-48
2022/06/27 03:45:56;;;;;;;;;;;;;;;33.25;56.19;100791.50;3056146;19;1206;-48
2022/06/27 03:46:58;;;;;;;;;;;;;;;33.76;55.00;100792.81;3056091;19;960;-48
2022/06/27 03:50:03;;;;;;;;;;;;;;;34.84;52.23;100799.72;3055961;19;1296;-47
2022/06/27 03:51:10;;;;;;;;;;;;;;;35.23;51.37;100798.84;3056694;19;1256;-47
2022/06/27 03:52:15;;;;;;;;;;;;;;;35.60;50.60;100802.03;3056916;19;1675;-47
2022/06/27 03:53:18;;;;;;;;;;;;;;;35.91;49.92;100800.63;3055900;19;1043;-48
2022/06/27 03:54:23;;;;;;;;;;;;;;;36.23;49.83;100809.19;3056709;19;960;-47
2022/06/27 03:55:25;;;;;;;;;;;;;;;36.51;49.45;100810.97;3055465;19;1476;-48
2022/06/27 03:56:29;;;;;;;;;;;;;;;36.76;48.80;100807.69;3057137;19;1742;-48
2022/06/27 03:57:31;;;;;;;;;;;;;;;37.04;48.25;100806.63;3056022;19;929;-48
2022/06/27 03:58:36;;;;;;;;;;;;;;;37.31;47.50;100807.53;3056040;19;1862;-53
2022/06/27 03:59:38;;;;;;;;;;;;;;;37.54;46.95;100809.13;3055478;19;993;-48
2022/06/27 04:00:42;;;;;;;;;;;;;;;37.74;46.50;100811.28;3055786;19;1752;-48
2022/06/27 04:01:45;;;;;;;;;;;;;;;37.92;46.18;100805.25;3056592;19;1320;-49
2022/06/27 04:02:50;;;;;;;;;;;;;;;38.08;45.49;100809.88;3056103;19;893;-49
2022/06/27 04:04:01;;;;;;;;;;;;;;;38.32;45.25;100809.47;3056115;19;1040;-48
2022/06/27 04:05:06;;;;;;;;;;;;;;;38.46;45.35;100810.66;3055891;19;1182;-48
2022/06/27 04:06:08;;;;;;;;;;;;;;;38.61;44.51;100816.34;3057107;19;1472;-50
2022/06/27 04:07:13;;;;;;;;;;;;;;;38.76;43.93;100816.41;3053978;19;1110;-48
2022/06/27 04:08:15;;;;;;;;;;;;;;;38.86;44.10;100822.03;3055922;19;972;-48
2022/06/27 04:09:20;;;;;;;;;;;;;;;39.01;43.39;100814.81;3055906;19;953;-48
2022/06/27 04:10:22;;;;;;;;;;;;;;;39.17;43.53;100813.75;3055648;19;1019;-48
2022/06/27 04:11:26;;;;;;;;;;;;;;;39.39;43.10;100814.34;3056071;19;887;-48
2022/06/27 04:12:31;;;;;;;;;;;;;;;39.57;42.16;100816.66;3055735;19;861;-48
2022/06/27 04:14:05;;;;;;;;;;;;;;;39.72;41.93;100817.78;3055874;19;1082;-48
2022/06/27 04:15:15;;;;;;;;;;;;;;;39.91;41.71;100821.69;3056597;19;2002;-49
2022/06/27 04:16:38;;;;;;;;;;;;;;;40.03;41.31;100822.25;3056590;19;1015;-48
2022/06/27 04:17:49;;;;;;;;;;;;;;;40.16;40.92;100821.66;3056694;19;1063;-48
2022/06/27 04:19:11;;;;;;;;;;;;;;;40.38;40.73;100823.31;3056469;19;1849;-48
2022/06/27 04:20:16;;;;;;;;;;;;;;;40.57;40.71;100829.97;3057726;19;1628;-48
2022/06/27 04:21:37;;;;;;;;;;;;;;;40.76;40.25;100828.25;3055515;19;1163;-49
2022/06/27 04:23:17;;;;;;;;;;;;;;;41.08;40.16;100830.59;3054140;19;1528;-47
2022/06/27 04:24:38;;;;;;;;;;;;;;;41.31;39.55;100818.69;3054757;19;1004;-48
2022/06/27 04:25:44;;;;;;;;;;;;;;;41.55;39.17;100830.03;3054903;19;1570;-49
2022/06/27 04:26:46;;;;;;;;;;;;;;;41.51;39.63;100823.34;3055422;19;880;-48
2022/06/27 04:27:51;;;;;;;;;;;;;;;41.26;39.63;100826.31;3055917;19;956;-48
2022/06/27 04:28:54;;;;;;;;;;;;;;;40.97;39.53;100829.81;3055507;19;899;-48
2022/06/27 04:29:58;;;;;;;;;;;;;;;40.75;39.99;100820.97;3055590;19;992;-48
2022/06/27 04:31:00;;;;;;;;;;;;;;;40.48;40.12;100820.47;3055575;19;876;-49
2022/06/27 04:32:07;;;;;;;;;;;;;;;40.20;40.30;100817.19;3055862;19;940;-48
2022/06/27 04:33:11;;;;;;;;;;;;;;;39.81;40.27;100807.69;3055020;19;1016;-48
2022/06/27 04:34:15;;;;;;;;;;;;;;;39.78;40.68;100813.84;3055725;19;992;-48
2022/06/27 04:35:20;;;;;;;;;;;;;;;40.02;40.67;100820.56;3055349;19;1051;-48
2022/06/27 04:36:25;;;;;;;;;;;;;;;40.34;40.19;100825.00;3055758;19;924;-48
2022/06/27 04:37:28;;;;;;;;;;;;;;;40.65;40.19;100829.38;3056384;19;1213;-48
2022/06/27 04:38:53;;;;;;;;;;;;;;;40.98;39.57;100831.47;3054532;19;1555;-48
2022/06/27 04:40:26;;;;;;;;;;;;;;;41.35;39.55;100832.97;3055809;19;1592;-49
2022/06/27 04:41:30;;;;;;;;;;;;;;;41.63;38.82;100829.44;3055558;19;2191;-48
2022/06/27 04:42:34;;;;;;;;;;;;;;;41.80;38.73;100836.56;3056691;19;1604;-48
2022/06/27 04:43:36;;;;;;;;;;;;;;;42.04;38.53;100843.09;3056795;19;1704;-48
2022/06/27 04:44:42;;;;;;;;;;;;;;;42.22;38.50;100833.94;3055457;19;1047;-48
2022/06/27 04:45:44;;;;;;;;;;;;;;;42.51;38.46;100835.91;3055199;19;1285;-48
2022/06/27 04:47:13;;;;;;;;;;;;;;;42.73;37.85;100844.63;3055193;19;1441;-48
2022/06/27 04:48:26;;;;;;;;;;;;;;;42.79;38.37;100831.38;3055523;19;1302;-48
2022/06/27 04:49:31;;;;;;;;;;;;;;;42.82;37.92;100837.22;3055434;19;1202;-48
2022/06/27 04:50:34;;;;;;;;;;;;;;;42.87;38.31;100834.34;3055506;19;931;-48
2022/06/27 04:51:41;;;;;;;;;;;;;;;42.97;38.27;100845.47;3055130;19;873;-48
2022/06/27 04:52:42;;;;;;;;;;;;;;;43.33;37.76;100848.63;3055517;19;948;-47
2022/06/27 04:53:48;;;;;;;;;;;;;;;43.65;37.23;100839.41;3055238;19;1031;-48
2022/06/27 04:54:50;;;;;;;;;;;;;;;43.84;36.51;100830.91;3055484;19;869;-48
2022/06/27 04:55:55;;;;;;;;;;;;;;;44.04;36.56;100846.66;3055226;19;1121;-48
2022/06/27 04:56:57;;;;;;;;;;;;;;;44.19;36.39;100849.19;3055126;19;1039;-49
2022/06/27 04:58:03;;;;;;;;;;;;;;;44.30;35.70;100839.41;3055101;19;955;-48
2022/06/27 04:59:07;;;;;;;;;;;;;;;44.45;35.61;100852.34;3055726;19;1768;-48
2022/06/27 05:00:13;;;;;;;;;;;;;;;44.60;36.16;100842.75;3054551;19;1861;-49
2022/06/27 05:01:36;;;;;;;;;;;;;;;44.74;35.71;100849.22;3055530;19;1019;-48
2022/06/27 05:02:42;;;;;;;;;;;;;;;44.85;34.96;100845.06;3055135;19;999;-49
2022/06/27 05:03:47;;;;;;;;;;;;;;;44.93;35.06;100847.13;3055324;19;1726;-48
2022/06/27 05:04:53;;;;;;;;;;;;;;;44.99;34.93;100845.88;3054961;19;1119;-48
2022/06/27 05:05:58;;;;;;;;;;;;;;;45.05;35.35;100849.41;3055522;19;869;-48
2022/06/27 05:07:00;;;;;;;;;;;;;;;45.08;35.04;100852.44;3055049;19;928;-48
2022/06/27 05:08:05;;;;;;;;;;;;;;;45.06;34.79;100849.09;3055540;19;928;-48
2022/06/27 05:09:14;;;;;;;;;;;;;;;45.01;35.03;100846.41;3055011;19;1197;-48
2022/06/27 05:10:18;;;;;;;;;;;;;;;44.96;34.68;100852.16;3054546;19;1604;-48
2022/06/27 05:11:20;;;;;;;;;;;;;;;44.97;34.96;100852.97;3055154;19;1571;-48
2022/06/27 05:12:25;;;;;;;;;;;;;;;44.95;35.39;100855.28;3055696;19;1234;-48
2022/06/27 05:13:28;;;;;;;;;;;;;;;44.91;34.93;100849.47;3054561;19;1607;-49
2022/06/27 05:14:32;;;;;;;;;;;;;;;44.92;35.15;100853.13;3054946;19;932;-49
2022/06/27 05:15:37;;;;;;;;;;;;;;;44.93;35.48;100852.78;3055274;19;972;-48
2022/06/27 05:16:42;;;;;;;;;;;;;;;44.86;34.96;100855.19;3054805;19;1700;-49
2022/06/27 05:17:48;;;;;;;;;;;;;;;44.58;34.81;100861.94;3055664;19;1085;-48
2022/06/27 05:18:50;;;;;;;;;;;;;;;43.58;35.75;100861.47;3056137;19;1143;-49
2022/06/27 05:20:17;;;;;;;;;;;;;;;41.46;37.82;100854.19;3057598;19;1858;-48
2022/06/27 05:21:19;;;;;;;;;;;;;;;39.90;39.68;100847.97;3058092;19;1794;-48
2022/06/27 05:22:23;;;;;;;;;;;;;;;38.76;41.55;100844.31;3058312;19;916;-48
2022/06/27 05:23:25;;;;;;;;;;;;;;;37.77;42.98;100836.66;3058863;19;969;-48
2022/06/27 05:24:30;;;;;;;;;;;;;;;36.93;44.25;100841.88;3058375;19;881;-48
2022/06/27 05:25:32;;;;;;;;;;;;;;;36.13;45.37;100830.38;3058021;19;938;-48
2022/06/27 05:26:37;;;;;;;;;;;;;;;35.44;46.78;100850.03;3058310;19;806;-49
2022/06/27 05:27:39;;;;;;;;;;;;;;;34.80;48.71;100831.81;3057878;19;926;-49
2022/06/27 05:28:45;;;;;;;;;;;;;;;34.22;49.22;100832.69;3058123;19;953;-48
2022/06/27 05:29:50;;;;;;;;;;;;;;;33.66;50.15;100836.84;3057872;19;1872;-48
2022/06/27 05:30:53;;;;;;;;;;;;;;;33.16;51.98;100837.13;3058273;19;896;-48
2022/06/27 05:31:58;;;;;;;;;;;;;;;32.74;53.57;100843.63;3058007;19;932;-47
2022/06/27 05:33:06;;;;;;;;;;;;;;;32.25;54.60;100839.06;3057841;19;814;-48
2022/06/27 05:34:10;;;;;;;;;;;;;;;31.88;54.74;100832.59;3055046;19;1780;-48
2022/06/27 05:35:15;;;;;;;;;;;;;;;31.54;55.75;100831.97;3058598;19;1904;-48
2022/06/27 05:36:19;;;;;;;;;;;;;;;31.25;57.17;100832.59;3057978;19;984;-48
2022/06/27 05:37:24;;;;;;;;;;;;;;;30.97;57.95;100833.78;3057742;19;992;-49
2022/06/27 05:38:26;;;;;;;;;;;;;;;30.73;59.39;100829.00;3057210;19;957;-48
2022/06/27 05:39:33;;;;;;;;;;;;;;;30.55;60.65;100826.13;3057570;19;1028;-48
2022/06/27 05:40:37;;;;;;;;;;;;;;;30.33;62.49;100828.25;3057218;19;1862;-48
2022/06/27 05:41:40;;;;;;;;;;;;;;;30.16;62.70;100827.88;3057033;19;1147;-48
2022/06/27 05:42:47;;;;;;;;;;;;;;;29.98;63.16;100822.16;3058154;19;877;-48
2022/06/27 05:43:50;;;;;;;;;;;;;;;29.84;63.62;100824.03;3057756;19;1000;-48